Weather History for Cheboygan, MI

Change the Weather History Date:

Wednesday, May 8, 2013

  Actual Average (KPLN) Record (KPLN)
Temperature  
Mean Temperature 56 °F -  
Max Temperature 73 °F 62 °F 84 °F (1979)
Min Temperature 40 °F 37 °F 15 °F (1956)
Degree Days  
Heating Degree Days 8    
Growing Degree Days 6 (Base 50)    
Moisture  
Dew Point 37 °F    
Average Humidity 53    
Maximum Humidity 85    
Minimum Humidity 21    
Precipitation  
Precipitation 0.00 in - - ()
Sea Level Pressure  
Sea Level Pressure 30.02 in    
Wind  
Wind Speed 2 mph (ENE)    
Max Wind Speed 9 mph    
Max Gust Speed -    
Visibility 10 miles    
Events      
Averages and records for this station are not official NWS values.
T = Trace of Precipitation, MM = Missing Value Source: NWS Daily Summary

Daily Weather History Graph

Daily Weather History Graph

Search for Another Location

Airport:

Trip Planner

Search our weather history database for the weather conditions in past years. The results will help you decide how hot, cold, wet, or windy it might be!

Date:

Astronomy

May. 08, 2013 Rise Set
Actual Time 6:15 AM EDT 8:54 PM EDT
Civil Twilight 5:41 AM EDT 9:28 PM EDT
Nautical Twilight 4:59 AM EDT 10:11 PM EDT
Astronomical Twilight 4:09 AM EDT 11:00 PM EDT
Moon 5:27 AM EDT (5/8) 7:49 PM EDT (5/8)
Length of Visible Light 15h 46m
Length of Day
14h 38m
Waning Crescent, 2% of the Moon is Illuminated
May 8
Waning Crescent
May 9
New
May 18
First Quarter
May 25
Full
May 31
Last Quarter

Hourly Weather History & Observations

Time (EDT) Temp. Dew Point Humidity Pressure Visibility Wind Dir Wind Speed Gust Speed Precip Events Conditions
12:15 AM 44.8 °F 36.5 °F 73% 30.05 in 10.0 mi Calm Calm - N/A   Clear
12:35 AM 44.8 °F 36.1 °F 72% 30.04 in 10.0 mi Calm Calm - N/A   Clear
12:55 AM 44.4 °F 36.1 °F 73% 30.04 in 10.0 mi Calm Calm - N/A   Clear
1:15 AM 43.5 °F 37.6 °F 80% 30.04 in 10.0 mi Calm Calm - N/A   Clear
1:35 AM 43.0 °F 36.7 °F 78% 30.04 in 10.0 mi Calm Calm - N/A   Clear
1:55 AM 43.2 °F 37.4 °F 80% 30.04 in 10.0 mi Calm Calm - N/A   Clear
2:15 AM 42.8 °F 36.7 °F 79% 30.04 in 10.0 mi Calm Calm - N/A   Clear
2:35 AM 41.7 °F 36.7 °F 82% 30.04 in 10.0 mi Calm Calm - N/A   Clear
2:55 AM 42.8 °F 37.6 °F 82% 30.04 in 10.0 mi Calm Calm - N/A   Clear
3:15 AM 42.1 °F 36.7 °F 81% 30.03 in 10.0 mi Calm Calm - N/A   Clear
3:35 AM 41.2 °F 36.3 °F 83% 30.03 in 10.0 mi Calm Calm - N/A   Clear
3:55 AM 41.5 °F 36.3 °F 82% 30.03 in 10.0 mi Calm Calm - N/A   Clear
4:15 AM 43.0 °F 36.7 °F 78% 30.03 in 10.0 mi Calm Calm - N/A   Clear
4:35 AM 41.4 °F 35.6 °F 80% 30.03 in 10.0 mi Calm Calm - N/A   Clear
4:55 AM 41.0 °F 35.4 °F 81% 30.03 in 10.0 mi Calm Calm - N/A   Clear
5:15 AM 40.5 °F 35.8 °F 83% 30.03 in 10.0 mi Calm Calm - N/A   Clear
5:35 AM 41.7 °F 36.1 °F 81% 30.02 in 10.0 mi Calm Calm - N/A   Clear
5:55 AM 40.8 °F 36.5 °F 85% 30.03 in 10.0 mi Calm Calm - N/A   Clear
6:15 AM 40.3 °F 35.4 °F 83% 30.03 in 10.0 mi Calm Calm - N/A   Clear
6:35 AM 40.6 °F 36.0 °F 83% 30.03 in 3.0 mi Calm Calm - N/A   Haze
6:55 AM 41.7 °F 37.2 °F 84% 30.03 in 10.0 mi Calm Calm - N/A   Clear
7:15 AM 43.3 °F 39.0 °F 85% 30.04 in 10.0 mi Calm Calm - N/A   Clear
7:35 AM 47.3 °F 40.3 °F 77% 30.04 in 10.0 mi Calm Calm - N/A   Clear
7:55 AM 51.1 °F 41.2 °F 69% 30.05 in 10.0 mi Calm Calm - N/A   Clear
8:15 AM 54.1 °F 41.9 °F 63% 30.05 in 10.0 mi Calm Calm - N/A   Clear
8:35 AM 58.6 °F 40.3 °F 51% 30.05 in 10.0 mi SE 4.6 mph - N/A   Clear
8:55 AM 61.9 °F 37.0 °F 40% 30.05 in 10.0 mi SSE 5.8 mph - N/A   Clear
9:15 AM 64.6 °F 35.2 °F 34% 30.05 in 10.0 mi South 4.6 mph - N/A   Clear
9:35 AM 66.4 °F 32.5 °F 28% 30.05 in 10.0 mi SSE 4.6 mph - N/A   Clear
9:55 AM 68.2 °F 32.7 °F 27% 30.05 in 10.0 mi SE 5.8 mph - N/A   Clear
10:15 AM 70.2 °F 34.2 °F 27% 30.05 in 10.0 mi SSE 4.6 mph - N/A   Clear
10:35 AM 71.6 °F 35.1 °F 26% 30.04 in 10.0 mi SSE 3.5 mph - N/A   Clear
10:55 AM 73.2 °F 37.4 °F 27% 30.04 in 10.0 mi SW 3.5 mph - N/A   Clear
11:15 AM 68.9 °F 41.2 °F 36% 30.04 in 7.0 mi NE 6.9 mph - N/A   Clear
11:35 AM 65.5 °F 39.6 °F 39% 30.05 in 5.0 mi NNE 5.8 mph - N/A   Haze
11:55 AM 64.6 °F 38.5 °F 38% 30.05 in 10.0 mi ENE 5.8 mph - N/A   Clear
12:15 PM 65.1 °F 36.5 °F 35% 30.05 in 10.0 mi NNE 5.8 mph - N/A   Clear
12:35 PM 64.4 °F 35.2 °F 34% 30.05 in 10.0 mi NE 5.8 mph - N/A   Clear
12:55 PM 64.0 °F 36.0 °F 35% 30.05 in 10.0 mi NE 5.8 mph - N/A   Clear
1:15 PM 63.7 °F 36.5 °F 36% 30.04 in 10.0 mi ENE 6.9 mph - N/A   Clear
1:35 PM 64.8 °F 34.5 °F 33% 30.04 in 10.0 mi ENE 9.2 mph - N/A   Clear
1:55 PM 66.4 °F 33.4 °F 29% 30.04 in 10.0 mi NE 8.1 mph - N/A   Clear
2:15 PM 67.1 °F 32.5 °F 28% 30.03 in 10.0 mi NE 6.9 mph - N/A   Clear
2:35 PM 69.1 °F 32.7 °F 26% 30.03 in 10.0 mi ENE 9.2 mph - N/A   Clear
2:55 PM 69.4 °F 33.1 °F 26% 30.02 in 10.0 mi NE 8.1 mph - N/A   Clear
3:15 PM 70.3 °F 36.1 °F 29% 30.02 in 10.0 mi NE 6.9 mph - N/A   Clear
3:35 PM 70.7 °F 36.0 °F 28% 30.02 in 10.0 mi NE 5.8 mph - N/A   Clear
3:55 PM 69.3 °F 35.4 °F 29% 30.02 in 10.0 mi NE 6.9 mph - N/A   Clear
4:35 PM 67.3 °F 37.8 °F 34% 30.01 in 10.0 mi NE 4.6 mph - N/A   Clear
4:55 PM 66.7 °F 38.5 °F 35% 30.00 in 10.0 mi ENE 3.5 mph - N/A   Clear
5:15 PM 70.2 °F 40.6 °F 34% 29.99 in 10.0 mi Calm Calm - N/A   Clear
5:35 PM 72.0 °F 39.2 °F 30% 29.99 in 10.0 mi NE 3.5 mph - N/A   Clear
5:55 PM 72.5 °F 38.1 °F 29% 29.98 in 10.0 mi ENE 3.5 mph - N/A   Clear
6:14 PM 72.7 °F 34.9 °F 25% 29.98 in 10.0 mi Calm Calm - N/A   Clear
6:35 PM 73.2 °F 33.8 °F 24% 29.98 in 10.0 mi Calm Calm - N/A   Clear
6:55 PM 73.4 °F 31.3 °F 21% 29.97 in 10.0 mi Calm Calm - N/A   Clear
7:15 PM 73.4 °F 31.6 °F 22% 29.97 in 10.0 mi North 3.5 mph - N/A   Clear
7:35 PM 72.3 °F 33.4 °F 24% 29.97 in 10.0 mi NNE 3.5 mph - N/A   Clear
7:55 PM 70.5 °F 38.3 °F 31% 29.97 in 10.0 mi Calm Calm - N/A   Clear
8:15 PM 66.7 °F 44.1 °F 44% 29.98 in 10.0 mi Calm Calm - N/A   Clear
8:35 PM 64.2 °F 42.8 °F 46% 29.98 in 10.0 mi Calm Calm - N/A   Clear
8:55 PM 61.2 °F 41.9 °F 49% 29.98 in 5.0 mi Calm Calm - N/A   Haze
9:15 PM 56.3 °F 42.8 °F 61% 29.98 in 7.0 mi Calm Calm - N/A   Clear
9:35 PM 53.4 °F 42.6 °F 67% 29.98 in 5.0 mi Calm Calm - N/A   Haze
9:55 PM 55.6 °F 42.6 °F 62% 29.99 in 10.0 mi Calm Calm - N/A   Clear
10:15 PM 54.5 °F 43.3 °F 66% 29.99 in 10.0 mi WSW 3.5 mph - N/A   Clear
10:35 PM 52.2 °F 43.3 °F 72% 29.99 in 10.0 mi SW 3.5 mph - N/A   Clear
10:55 PM 52.0 °F 42.8 °F 71% 29.99 in 10.0 mi WSW 3.5 mph - N/A   Clear
11:15 PM 51.8 °F 42.3 °F 70% 29.99 in 10.0 mi Calm Calm - N/A   Clear
11:35 PM 50.4 °F 42.8 °F 75% 29.98 in 10.0 mi Calm Calm - N/A   Clear
11:55 PM 50.9 °F 40.6 °F 68% 29.98 in 10.0 mi Calm Calm - N/A   Clear